Weather observations for the past three days for
Riverside Municipal Airport
Imperial (Metric)
Date Time (pdt) Wind (mph) Vis. (mi.) Weather Sky Cond. Temperature (ºF) Relative Humidity Wind Chill (°F) Heat Index (°F) Pressure Precipitation (in)
Air Dwpt 6 hour altimeter (in) sea level (mb) 1 hr 3 hr 6 hr
Max. Min.
02 21:53 W 7 10.00 Fair CLR 62.1 54 75% 29.9 1011.4
02 20:53 W 12 10.00 Fair CLR 64 54 70% 29.87 1010.4
02 19:53 W 8 10.00 Fair CLR 70 54 57% 29.84 1009.2
02 18:53 W 6 10.00 Fair CLR 73.9 54 50% 29.83 1008.7
02 17:53 W 13 10.00 Fair CLR 75.9 55 48% 78 29.82 1008.6
02 16:53 W 13 10.00 Fair CLR 80.1 55 82.9 66.9 42% 80 29.82 1008.3
02 15:53 W 14 G 22 10.00 Fair CLR 81 55 41% 81 29.83 1008.6
02 14:53 W 13 G 21 10.00 Fair CLR 82 55 40% 81 29.86 1009.6
02 13:53 W 10 G 17 10.00 Fair CLR 80.1 55 42% 80 29.87 1010.1
02 12:53 Vrbl 6 10.00 Fair CLR 77 55.9 48% 79 29.9 1011.2
02 11:53 Vrbl 6 6.00 Fair with Haze CLR 71.1 55.9 59% 29.93 1012.3
02 10:53 SW 6 4.00 Fair with Haze CLR 66.9 55.9 66.9 55 68% 29.96 1013.1
02 09:53 Calm 3.00 Overcast with Haze OVC009 64 55.9 75% 29.97 1013.4
02 08:53 Calm 2.00 Fog/Mist OVC006 59 55.9 90% 29.97 1013.8
02 07:53 Calm 2.00 Fog/Mist OVC004 57.9 55.9 93% 29.98 1013.9
02 06:53 Vrbl 3 2.00 Fog/Mist OVC003 57 55 93% 29.97 1013.6
02 05:53 Calm 5.00 Fog/Mist BKN007 OVC017 55 54 96% 29.94 1012.7
02 04:53 Calm 9.00 Fair CLR 55.9 53.1 62.1 55.9 90% 29.92 1011.9
02 03:53 Calm 8.00 Fair CLR 57.9 55 90% 29.92 1011.7
02 02:53 Calm 9.00 Fair CLR 57.9 54 87% 29.92 1011.8
02 01:53 Calm 10.00 Fair CLR 59 55 87% 29.93 1012.2
02 00:53 Calm 10.00 Fair CLR 60.1 55 84% 29.94 1012.7
01 23:53 W 3 10.00 Fair CLR 61 55 81% 29.95 1012.9
01 22:53 W 5 10.00 Fair CLR 61 55 81 61 81% 29.95 1012.9
01 21:53 W 5 10.00 Fair CLR 63 55 76% 29.94 1012.7
01 20:53 W 6 10.00 Fair CLR 64.9 55 70% 29.92 1012.0
01 19:53 W 9 10.00 Fair CLR 66.9 55 66% 29.89 1011.1
01 18:53 W 7 10.00 Fair CLR 73 54 51% 29.87 1010.1
01 17:53 W 12 G 20 10.00 Fair CLR 77 53.1 43% 78 29.85 1009.6
01 16:53 W 12 10.00 Fair CLR 81 53.1 82 63 38% 80 29.85 1009.4
01 15:53 W 12 G 18 10.00 Fair CLR 81 52 37% 80 29.86 1009.7
01 14:53 W 6 10.00 Fair CLR 80.1 55 42% 80 29.89 1010.6
01 13:53 W 8 10.00 Fair CLR 75.9 55 48% 78 29.91 1011.3
01 12:53 Calm 9.00 Fair CLR 70 54 57% 29.93 1012.2
01 11:53 Calm 9.00 Partly Cloudy SCT017 66.9 54 63% 29.96 1013.3
01 10:53 Vrbl 3 8.00 Overcast OVC014 62.1 54 62.1 57 75% 29.98 1013.9
01 09:53 SW 3 8.00 Overcast OVC012 61 54 78% 29.98 1014.0
01 08:53 Calm 8.00 Overcast OVC011 60.1 54 80% 29.98 1014.1
01 07:53 Calm 8.00 Overcast OVC011 59 54 83% 29.97 1013.7
01 06:53 W 5 9.00 Overcast OVC010 57.9 54 87% 29.96 1013.3
01 05:53 Calm 10.00 Overcast OVC011 57.9 53.1 84% 29.94 1012.6
01 04:53 Calm 10.00 Overcast OVC011 57 54 61 55 90% 29.93 1012.3
01 03:53 W 3 10.00 Overcast BKN012 OVC023 55 53.1 93% 29.93 1012.2
01 02:53 Calm 10.00 Fair CLR 55.9 53.1 90% 29.93 1012.0
01 01:53 W 3 10.00 Fair CLR 57.9 54 87% 29.94 1012.3
01 00:53 W 5 10.00 Fair CLR 57 54 90% 29.94 1012.4
30 23:53 W 6 10.00 Fair CLR 57.9 54 87% 29.93 1012.3
30 22:53 W 5 10.00 Fair CLR 60.1 54 73.9 60.1 80% 29.93 1012.2
30 21:53 Calm 10.00 Fair CLR 61 54 78% 29.92 1012.0
30 20:53 W 5 10.00 Fair CLR 63 54 73% 29.9 1011.3
30 19:53 W 9 10.00 Fair CLR 64.9 53.1 66% 29.87 1010.4
30 18:53 W 10 G 18 10.00 Fair CLR 68 53.1 59% 29.85 1009.5
30 17:53 W 10 10.00 Fair CLR 72 53.1 52% 29.84 1009.1
30 16:53 W 15 G 24 10.00 Fair CLR 73 51.1 80.1 66.9 46% 29.82 1008.5
30 15:53 W 15 G 25 10.00 Fair CLR 77 51.1 40% 78 29.82 1008.4
30 14:53 W 10 G 21 10.00 Fair CLR 78.1 51.1 39% 79 29.82 1008.6
30 13:53 W 13 G 20 10.00 Fair CLR 77 48.9 37% 78 29.84 1009.0
30 12:53 W 6 10.00 Fair CLR 73.9 48.9 41% 29.85 1009.3
30 11:53 SW 7 10.00 Fair CLR 71.1 46.9 42% 29.88 1010.5
30 10:53 W 7 10.00 Fair CLR 66.9 48.9 66.9 53.1 53% 29.9 1011.1
30 09:53 Vrbl 3 10.00 Fair CLR 63 50 63% 29.91 1011.7
30 08:53 Vrbl 3 10.00 A Few Clouds FEW017 60.1 51.1 72% 29.92 1012.1
30 07:53 Calm 10.00 Partly Cloudy SCT011 57.9 51.1 78% 29.94 1012.5
30 06:53 Calm 10.00 A Few Clouds FEW015 54 48 80% 29.93 1012.5
30 05:53 Calm 10.00 Fair CLR 54 46.9 77% 29.92 1012.1
30 04:53 Calm 10.00 Fair CLR 54 46.9 62.1 54 77% 29.93 1012.1
30 03:53 Calm 10.00 Fair CLR 54 46.9 77% 29.93 1012.3
30 02:53 Calm 10.00 Fair CLR 55.9 46 70% 29.95 1012.7
30 01:53 W 3 10.00 Fair CLR 57.9 46.9 67% 29.95 1012.9
30 00:53 Calm 10.00 Fair CLR 59 46 62% 29.97 1013.6
29 23:53 Calm 10.00 Fair CLR 61 46 58% 29.98 1013.9
29 22:53 Calm 10.00 Fair CLR 62.1 46.9 75 62.1 58% 29.99 1014.4
Date Time (pdt) Wind (mph) Vis. (mi.) Weather Sky Cond. Air Dwpt Max. Min. Relative Humidity Wind Chill (°F) Heat Index (°F) altimeter (in) sea level (mb) 1 hr 3 hr 6 hr
6 hour
Temperature (ºF) Pressure Precipitation (in)